Nearby METAR Reports

 

K9MN - St Mary Hospital, Minnesota, USA
Distance from station: SW 3mi, 4km
Updated: 01/27/2023 5:35pm
Clear
Clear
 Wind from W
Wind: W 15 mph , 24 km/h, Gust: 24 mph , 39 km/h
Temperature: 16°F , -9°C
Wind Chill: 1°F , -17°C
Dew Point: 9°F , -13°C
Humidity: 73%
Barometer: 29.82 inHg , 1009.8 hPa
Clouds: Clear
Visibility: 10 miles , 16 km
2023/01/27 23:35 K9MN 272335Z AUTO 26013G21KT 230V290 10SM CLR M09/M13 A2982 RMK AO1 T10871129
KRST - Rochester, Minnesota, USA
Distance from station: SSW 10mi, 16km
Updated: 01/27/2023 4:54pm
Clear
Clear
 Wind from W
Wind: W 20 mph , 31 km/h
Temperature: 16°F , -9°C
Wind Chill: -1°F , -18°C
Dew Point: 9°F , -13°C
Humidity: 73%
Barometer: 29.77 inHg , 1008.1 hPa
Clouds: Clear
Visibility: 10 miles , 16 km
2023/01/27 22:54 KRST 272254Z 28017KT 10SM CLR M09/M13 A2977 RMK AO2 PK WND 29027/2156 SNB2158E08 SLP105 P0000 T10941128
 
KTOB - Dodge Center, Minnesota, USA
Distance from station: W 19mi, 30km
Updated: 01/27/2023 5:35pm

 Wind from W
Wind: W 14 mph , 22 km/h, Gust: 17 mph , 28 km/h
Temperature: 14°F , -10°C
Wind Chill: -1°F , -18°C
Dew Point: 9°F , -13°C
Humidity: 79%
Barometer: 29.82 inHg , 1009.8 hPa
Visibility: 10 miles , 16 km
2023/01/27 23:35 KTOB 272335Z AUTO 27012G15KT 10SM M10/M13 A2982 RMK AO2
KFKA - Preston, Minnesota, USA
Distance from station: SSE 28mi, 45km
Updated: 01/27/2023 5:35pm
Clear
Clear
 Wind from W
Wind: W 12 mph , 19 km/h, Gust: 16 mph , 26 km/h
Temperature: 14°F , -10°C
Wind Chill: 0°F , -18°C
Dew Point: 9°F , -13°C
Humidity: 79%
Barometer: 29.83 inHg , 1010.2 hPa
Clouds: Clear
Visibility: 10 miles , 16 km
2023/01/27 23:35 KFKA 272335Z AUTO 28010G14KT 10SM CLR M10/M13 A2983 RMK AO2 T11021132
 
KAUM - Austin Muni, Minnesota, USA
Distance from station: SW 35mi, 57km
Updated: 01/27/2023 5:35pm
Clear
Clear
 Wind from WNW
Wind: WNW 14 mph , 22 km/h
Temperature: 18°F , -8°C
Wind Chill: 4°F , -16°C
Dew Point: 10°F , -12°C
Humidity: 73%
Barometer: 29.85 inHg , 1010.8 hPa
Clouds: Clear
Visibility: 10 miles , 16 km
2023/01/27 23:35 KAUM 272335Z AUTO 30012KT 10SM CLR M08/M12 A2985 RMK AO2
KONA - Winona Muni, Minnesota, USA
Distance from station: E 37mi, 59km
Updated: 01/27/2023 5:35pm
Clear
Clear
 Wind from W
Wind: W 9 mph , 15 km/h
Temperature: 21°F , -6°C
Wind Chill: 11°F , -12°C
Dew Point: 10°F , -12°C
Humidity: 63%
Barometer: 29.83 inHg , 1010.2 hPa
Clouds: Clear
Visibility: 10 miles , 16 km
2023/01/27 23:35 KONA 272335Z AUTO 28008KT 10SM CLR M06/M12 A2983 RMK AO2
 
KRGK - Red Wing, Minnesota, USA
Distance from station: N 38mi, 61km
Updated: 01/27/2023 5:35pm
Clear
Clear
 Wind from W
Wind: W 9 mph , 15 km/h, Gust: 16 mph , 26 km/h
Temperature: 19°F , -7°C
Wind Chill: 8°F , -13°C
Dew Point: 9°F , -13°C
Humidity: 63%
Barometer: 29.81 inHg , 1009.5 hPa
Clouds: Clear
Visibility: 10 miles , 16 km
2023/01/27 23:35 KRGK 272335Z AUTO 28008G14KT 10SM CLR M07/M13 A2981 RMK AO2
KOWA - Owatonna, Minnesota, USA
Distance from station: W 41mi, 65km
Updated: 01/27/2023 5:33pm
Clear
Clear
 Wind from W
Wind: W 17 mph , 28 km/h
Temperature: 12°F , -11°C
Wind Chill: -5°F , -21°C
Dew Point: 7°F , -14°C
Humidity: 79%
Barometer: 29.87 inHg , 1011.5 hPa
Clouds: Clear
Visibility: 10 miles , 16 km
2023/01/27 23:33 KOWA 272333Z AUTO 27015KT 10SM CLR M11/M14 A2987 RMK AO2
 
KSYN - Stanton, Minnesota, USA
Distance from station: NW 42mi, 68km
Updated: 01/27/2023 5:35pm
Clear
Clear
 Wind from W
Wind: W 12 mph , 19 km/h
Temperature: 16°F , -9°C
Wind Chill: 3°F , -16°C
Dew Point: 7°F , -14°C
Humidity: 67%
Barometer: 29.84 inHg , 1010.5 hPa
Clouds: Clear
Visibility: 10 miles , 16 km
2023/01/27 23:35 KSYN 272335Z AUTO 27010KT 10SM CLR M09/M14 A2984 RMK AO2 T10911139
KFBL - Faribault Muni, Minnesota, USA
Distance from station: WNW 48mi, 77km
Updated: 01/27/2023 5:35pm
Clear
Clear
 Wind from WSW
Wind: WSW 10 mph , 17 km/h, Gust: 16 mph , 26 km/h
Temperature: 14°F , -10°C
Wind Chill: 1°F , -17°C
Dew Point: 9°F , -13°C
Humidity: 79%
Barometer: 29.87 inHg , 1011.5 hPa
Clouds: Clear
Visibility: 10 miles , 16 km
2023/01/27 23:35 KFBL 272335Z AUTO 25009G14KT 10SM CLR M10/M13 A2987 RMK AO2